sensor_id;sensor_type;location;lat;lon;timestamp;P1;durP1;ratioP1;P2;durP2;ratioP2
60243;SDS011;46106;51.468;5.814;2023-07-20T00:00:17;8.88;;;3.90;;
60243;SDS011;46106;51.468;5.814;2023-07-20T00:03:12;11.15;;;4.25;;
60243;SDS011;46106;51.468;5.814;2023-07-20T00:06:02;8.48;;;4.10;;
60243;SDS011;46106;51.468;5.814;2023-07-20T00:08:49;8.52;;;3.42;;
60243;SDS011;46106;51.468;5.814;2023-07-20T00:11:35;11.32;;;4.90;;
60243;SDS011;46106;51.468;5.814;2023-07-20T00:14:25;8.60;;;4.45;;
60243;SDS011;46106;51.468;5.814;2023-07-20T00:17:11;9.77;;;4.22;;
60243;SDS011;46106;51.468;5.814;2023-07-20T00:19:57;14.20;;;5.05;;
60243;SDS011;46106;51.468;5.814;2023-07-20T00:22:42;9.15;;;4.82;;
60243;SDS011;46106;51.468;5.814;2023-07-20T00:25:28;14.23;;;4.53;;
60243;SDS011;46106;51.468;5.814;2023-07-20T00:28:14;10.30;;;4.43;;
60243;SDS011;46106;51.468;5.814;2023-07-20T00:31:00;7.22;;;5.00;;
60243;SDS011;46106;51.468;5.814;2023-07-20T00:33:46;13.07;;;4.72;;
60243;SDS011;46106;51.468;5.814;2023-07-20T00:36:32;9.38;;;4.80;;
60243;SDS011;46106;51.468;5.814;2023-07-20T00:39:17;10.63;;;5.22;;
60243;SDS011;46106;51.468;5.814;2023-07-20T00:42:03;11.07;;;5.32;;
60243;SDS011;46106;51.468;5.814;2023-07-20T00:44:49;14.15;;;5.70;;
60243;SDS011;46106;51.468;5.814;2023-07-20T00:47:36;11.13;;;5.10;;
60243;SDS011;46106;51.468;5.814;2023-07-20T00:50:22;9.70;;;4.85;;
60243;SDS011;46106;51.468;5.814;2023-07-20T00:53:10;11.85;;;5.68;;
60243;SDS011;46106;51.468;5.814;2023-07-20T00:55:55;10.40;;;5.07;;
60243;SDS011;46106;51.468;5.814;2023-07-20T00:58:42;13.27;;;5.28;;
60243;SDS011;46106;51.468;5.814;2023-07-20T01:01:28;11.45;;;5.57;;
60243;SDS011;46106;51.468;5.814;2023-07-20T01:04:14;12.85;;;6.03;;
60243;SDS011;46106;51.468;5.814;2023-07-20T01:10:16;8.73;;;5.25;;
60243;SDS011;46106;51.468;5.814;2023-07-20T01:13:30;12.77;;;5.80;;
60243;SDS011;46106;51.468;5.814;2023-07-20T01:16:16;17.67;;;5.65;;
60243;SDS011;46106;51.468;5.814;2023-07-20T01:19:03;10.23;;;5.50;;
60243;SDS011;46106;51.468;5.814;2023-07-20T01:28:10;11.40;;;5.60;;
60243;SDS011;46106;51.468;5.814;2023-07-20T01:34:15;13.88;;;6.18;;
60243;SDS011;46106;51.468;5.814;2023-07-20T01:37:04;13.80;;;6.20;;
60243;SDS011;46106;51.468;5.814;2023-07-20T01:39:52;10.02;;;5.70;;
60243;SDS011;46106;51.468;5.814;2023-07-20T01:42:44;14.55;;;7.65;;
60243;SDS011;46106;51.468;5.814;2023-07-20T01:45:31;11.55;;;6.38;;
60243;SDS011;46106;51.468;5.814;2023-07-20T01:48:17;13.93;;;5.90;;
60243;SDS011;46106;51.468;5.814;2023-07-20T01:51:03;10.35;;;6.13;;
60243;SDS011;46106;51.468;5.814;2023-07-20T01:53:48;12.05;;;5.93;;
60243;SDS011;46106;51.468;5.814;2023-07-20T01:56:34;17.77;;;6.55;;
60243;SDS011;46106;51.468;5.814;2023-07-20T01:59:20;15.48;;;6.88;;
60243;SDS011;46106;51.468;5.814;2023-07-20T02:02:05;13.25;;;6.03;;
60243;SDS011;46106;51.468;5.814;2023-07-20T02:04:51;15.95;;;7.00;;
60243;SDS011;46106;51.468;5.814;2023-07-20T02:07:37;11.90;;;6.45;;
60243;SDS011;46106;51.468;5.814;2023-07-20T02:10:22;12.88;;;6.07;;
60243;SDS011;46106;51.468;5.814;2023-07-20T02:13:08;17.02;;;7.03;;
60243;SDS011;46106;51.468;5.814;2023-07-20T02:15:54;10.30;;;6.05;;
60243;SDS011;46106;51.468;5.814;2023-07-20T02:18:40;12.05;;;6.22;;
60243;SDS011;46106;51.468;5.814;2023-07-20T02:21:25;12.15;;;6.15;;
60243;SDS011;46106;51.468;5.814;2023-07-20T02:24:11;15.00;;;6.68;;
60243;SDS011;46106;51.468;5.814;2023-07-20T02:26:58;19.20;;;7.60;;
60243;SDS011;46106;51.468;5.814;2023-07-20T02:29:44;14.50;;;6.47;;
60243;SDS011;46106;51.468;5.814;2023-07-20T02:32:29;14.52;;;6.95;;
60243;SDS011;46106;51.468;5.814;2023-07-20T02:35:17;11.23;;;6.57;;
60243;SDS011;46106;51.468;5.814;2023-07-20T02:38:02;12.70;;;6.78;;
60243;SDS011;46106;51.468;5.814;2023-07-20T02:40:48;17.30;;;6.75;;
60243;SDS011;46106;51.468;5.814;2023-07-20T02:43:35;17.45;;;7.15;;
60243;SDS011;46106;51.468;5.814;2023-07-20T02:46:20;16.75;;;6.78;;
60243;SDS011;46106;51.468;5.814;2023-07-20T02:49:06;17.63;;;7.15;;
60243;SDS011;46106;51.468;5.814;2023-07-20T02:51:52;19.98;;;7.35;;
60243;SDS011;46106;51.468;5.814;2023-07-20T02:54:38;21.48;;;7.90;;
60243;SDS011;46106;51.468;5.814;2023-07-20T02:57:23;18.83;;;7.57;;
60243;SDS011;46106;51.468;5.814;2023-07-20T03:00:10;18.13;;;7.18;;
60243;SDS011;46106;51.468;5.814;2023-07-20T03:02:56;18.15;;;8.25;;
60243;SDS011;46106;51.468;5.814;2023-07-20T03:05:42;18.80;;;9.07;;
60243;SDS011;46106;51.468;5.814;2023-07-20T03:08:28;17.08;;;9.05;;
60243;SDS011;46106;51.468;5.814;2023-07-20T03:11:14;19.38;;;9.48;;
60243;SDS011;46106;51.468;5.814;2023-07-20T03:14:00;19.23;;;9.90;;
60243;SDS011;46106;51.468;5.814;2023-07-20T03:16:46;19.50;;;10.10;;
60243;SDS011;46106;51.468;5.814;2023-07-20T03:19:32;17.98;;;10.50;;
60243;SDS011;46106;51.468;5.814;2023-07-20T03:22:18;18.73;;;10.98;;
60243;SDS011;46106;51.468;5.814;2023-07-20T03:25:04;17.35;;;10.95;;
60243;SDS011;46106;51.468;5.814;2023-07-20T03:27:50;24.17;;;11.30;;
60243;SDS011;46106;51.468;5.814;2023-07-20T03:30:35;19.25;;;11.40;;
60243;SDS011;46106;51.468;5.814;2023-07-20T03:33:24;29.80;;;12.15;;
60243;SDS011;46106;51.468;5.814;2023-07-20T03:36:11;22.23;;;11.88;;
60243;SDS011;46106;51.468;5.814;2023-07-20T03:38:57;20.17;;;12.10;;
60243;SDS011;46106;51.468;5.814;2023-07-20T03:41:43;16.33;;;11.90;;
60243;SDS011;46106;51.468;5.814;2023-07-20T03:44:29;16.80;;;11.27;;
60243;SDS011;46106;51.468;5.814;2023-07-20T03:47:14;17.05;;;9.77;;
60243;SDS011;46106;51.468;5.814;2023-07-20T03:50:00;14.63;;;8.95;;
60243;SDS011;46106;51.468;5.814;2023-07-20T03:52:46;17.45;;;8.73;;
60243;SDS011;46106;51.468;5.814;2023-07-20T03:55:32;12.98;;;9.05;;
60243;SDS011;46106;51.468;5.814;2023-07-20T03:58:18;12.15;;;8.57;;
60243;SDS011;46106;51.468;5.814;2023-07-20T04:01:05;16.25;;;8.57;;
60243;SDS011;46106;51.468;5.814;2023-07-20T04:03:50;22.73;;;7.90;;
60243;SDS011;46106;51.468;5.814;2023-07-20T04:06:37;15.18;;;8.90;;
60243;SDS011;46106;51.468;5.814;2023-07-20T04:09:23;14.20;;;9.40;;
60243;SDS011;46106;51.468;5.814;2023-07-20T04:12:08;16.75;;;9.02;;
60243;SDS011;46106;51.468;5.814;2023-07-20T04:14:54;14.30;;;9.80;;
60243;SDS011;46106;51.468;5.814;2023-07-20T04:17:40;14.30;;;9.25;;
60243;SDS011;46106;51.468;5.814;2023-07-20T04:20:26;13.43;;;8.40;;
60243;SDS011;46106;51.468;5.814;2023-07-20T04:23:12;15.57;;;9.30;;
60243;SDS011;46106;51.468;5.814;2023-07-20T04:25:58;13.38;;;8.20;;
60243;SDS011;46106;51.468;5.814;2023-07-20T04:28:43;10.68;;;7.93;;
60243;SDS011;46106;51.468;5.814;2023-07-20T04:31:29;14.65;;;7.85;;
60243;SDS011;46106;51.468;5.814;2023-07-20T04:34:17;11.50;;;7.97;;
60243;SDS011;46106;51.468;5.814;2023-07-20T04:37:04;11.48;;;8.27;;
60243;SDS011;46106;51.468;5.814;2023-07-20T04:39:50;9.65;;;7.65;;
60243;SDS011;46106;51.468;5.814;2023-07-20T04:42:35;11.05;;;6.97;;
60243;SDS011;46106;51.468;5.814;2023-07-20T04:45:21;7.57;;;5.93;;
60243;SDS011;46106;51.468;5.814;2023-07-20T04:48:09;10.13;;;6.45;;
60243;SDS011;46106;51.468;5.814;2023-07-20T04:50:56;8.70;;;6.43;;
60243;SDS011;46106;51.468;5.814;2023-07-20T04:53:42;9.02;;;6.00;;
60243;SDS011;46106;51.468;5.814;2023-07-20T04:56:28;11.52;;;6.50;;
60243;SDS011;46106;51.468;5.814;2023-07-20T04:59:13;20.75;;;6.72;;
60243;SDS011;46106;51.468;5.814;2023-07-20T05:01:59;9.50;;;5.05;;
60243;SDS011;46106;51.468;5.814;2023-07-20T05:04:45;5.35;;;4.85;;
60243;SDS011;46106;51.468;5.814;2023-07-20T05:07:31;7.32;;;5.40;;
60243;SDS011;46106;51.468;5.814;2023-07-20T05:10:17;8.13;;;5.50;;
60243;SDS011;46106;51.468;5.814;2023-07-20T05:13:03;7.45;;;5.10;;
60243;SDS011;46106;51.468;5.814;2023-07-20T05:15:52;7.47;;;5.65;;
60243;SDS011;46106;51.468;5.814;2023-07-20T05:18:38;9.30;;;5.65;;
60243;SDS011;46106;51.468;5.814;2023-07-20T05:21:24;7.60;;;6.32;;
60243;SDS011;46106;51.468;5.814;2023-07-20T05:24:09;12.93;;;5.65;;
60243;SDS011;46106;51.468;5.814;2023-07-20T05:26:55;9.18;;;6.60;;
60243;SDS011;46106;51.468;5.814;2023-07-20T05:29:44;11.32;;;7.50;;
60243;SDS011;46106;51.468;5.814;2023-07-20T05:32:30;8.48;;;7.40;;
60243;SDS011;46106;51.468;5.814;2023-07-20T05:35:17;9.38;;;6.57;;
60243;SDS011;46106;51.468;5.814;2023-07-20T05:38:03;8.93;;;6.60;;
60243;SDS011;46106;51.468;5.814;2023-07-20T05:40:50;9.70;;;6.65;;
60243;SDS011;46106;51.468;5.814;2023-07-20T05:43:36;11.68;;;6.30;;
60243;SDS011;46106;51.468;5.814;2023-07-20T05:46:21;8.95;;;5.88;;
60243;SDS011;46106;51.468;5.814;2023-07-20T05:49:07;7.82;;;6.63;;
60243;SDS011;46106;51.468;5.814;2023-07-20T05:51:54;7.95;;;6.22;;
60243;SDS011;46106;51.468;5.814;2023-07-20T05:54:41;14.93;;;6.20;;
60243;SDS011;46106;51.468;5.814;2023-07-20T05:57:27;9.65;;;6.68;;
60243;SDS011;46106;51.468;5.814;2023-07-20T06:00:12;10.02;;;6.28;;
60243;SDS011;46106;51.468;5.814;2023-07-20T06:02:58;7.32;;;5.50;;
60243;SDS011;46106;51.468;5.814;2023-07-20T06:05:44;6.38;;;5.78;;
60243;SDS011;46106;51.468;5.814;2023-07-20T06:08:31;10.25;;;6.15;;
60243;SDS011;46106;51.468;5.814;2023-07-20T06:11:16;9.25;;;6.07;;
60243;SDS011;46106;51.468;5.814;2023-07-20T06:14:02;7.43;;;5.43;;
60243;SDS011;46106;51.468;5.814;2023-07-20T06:16:48;7.38;;;5.10;;
60243;SDS011;46106;51.468;5.814;2023-07-20T06:19:34;6.70;;;4.80;;
60243;SDS011;46106;51.468;5.814;2023-07-20T06:22:20;5.22;;;3.95;;
60243;SDS011;46106;51.468;5.814;2023-07-20T06:25:06;6.68;;;4.90;;
60243;SDS011;46106;51.468;5.814;2023-07-20T06:27:52;6.07;;;4.68;;
60243;SDS011;46106;51.468;5.814;2023-07-20T06:30:37;5.40;;;4.78;;
60243;SDS011;46106;51.468;5.814;2023-07-20T06:33:23;7.15;;;4.88;;
60243;SDS011;46106;51.468;5.814;2023-07-20T06:36:09;6.78;;;4.60;;
60243;SDS011;46106;51.468;5.814;2023-07-20T06:38:55;7.57;;;4.75;;
60243;SDS011;46106;51.468;5.814;2023-07-20T06:41:41;8.68;;;4.88;;
60243;SDS011;46106;51.468;5.814;2023-07-20T06:44:27;5.80;;;4.95;;
60243;SDS011;46106;51.468;5.814;2023-07-20T06:47:12;5.03;;;4.53;;
60243;SDS011;46106;51.468;5.814;2023-07-20T06:49:58;5.18;;;4.68;;
60243;SDS011;46106;51.468;5.814;2023-07-20T06:52:44;8.57;;;5.15;;
60243;SDS011;46106;51.468;5.814;2023-07-20T06:55:31;7.72;;;4.78;;
60243;SDS011;46106;51.468;5.814;2023-07-20T06:58:17;4.90;;;4.50;;
60243;SDS011;46106;51.468;5.814;2023-07-20T07:01:04;7.95;;;4.45;;
60243;SDS011;46106;51.468;5.814;2023-07-20T07:03:53;5.97;;;3.65;;
60243;SDS011;46106;51.468;5.814;2023-07-20T07:06:39;4.28;;;3.83;;
60243;SDS011;46106;51.468;5.814;2023-07-20T07:09:25;4.15;;;3.55;;
60243;SDS011;46106;51.468;5.814;2023-07-20T07:12:11;4.05;;;3.65;;
60243;SDS011;46106;51.468;5.814;2023-07-20T07:14:56;5.63;;;3.80;;
60243;SDS011;46106;51.468;5.814;2023-07-20T07:17:42;3.72;;;2.97;;
60243;SDS011;46106;51.468;5.814;2023-07-20T07:20:28;5.20;;;3.15;;
60243;SDS011;46106;51.468;5.814;2023-07-20T07:23:14;3.97;;;2.95;;
60243;SDS011;46106;51.468;5.814;2023-07-20T07:26:00;4.50;;;3.78;;
60243;SDS011;46106;51.468;5.814;2023-07-20T07:28:46;4.45;;;3.80;;
60243;SDS011;46106;51.468;5.814;2023-07-20T07:31:33;3.60;;;3.30;;
60243;SDS011;46106;51.468;5.814;2023-07-20T07:34:19;4.45;;;3.08;;
60243;SDS011;46106;51.468;5.814;2023-07-20T07:37:05;4.35;;;3.08;;
60243;SDS011;46106;51.468;5.814;2023-07-20T07:39:51;5.85;;;2.78;;
60243;SDS011;46106;51.468;5.814;2023-07-20T07:42:37;2.55;;;2.22;;
60243;SDS011;46106;51.468;5.814;2023-07-20T07:45:22;3.70;;;2.40;;
60243;SDS011;46106;51.468;5.814;2023-07-20T07:48:08;5.25;;;3.33;;
60243;SDS011;46106;51.468;5.814;2023-07-20T07:50:56;3.67;;;3.22;;
60243;SDS011;46106;51.468;5.814;2023-07-20T07:53:42;4.70;;;2.75;;
60243;SDS011;46106;51.468;5.814;2023-07-20T07:56:29;2.78;;;2.35;;
60243;SDS011;46106;51.468;5.814;2023-07-20T07:59:14;3.88;;;2.75;;
60243;SDS011;46106;51.468;5.814;2023-07-20T08:02:00;7.82;;;2.50;;
60243;SDS011;46106;51.468;5.814;2023-07-20T08:04:46;3.22;;;2.13;;
60243;SDS011;46106;51.468;5.814;2023-07-20T08:07:32;3.47;;;2.33;;
60243;SDS011;46106;51.468;5.814;2023-07-20T08:10:18;2.10;;;1.73;;
60243;SDS011;46106;51.468;5.814;2023-07-20T08:13:03;2.88;;;1.60;;
60243;SDS011;46106;51.468;5.814;2023-07-20T08:15:50;1.92;;;1.38;;
60243;SDS011;46106;51.468;5.814;2023-07-20T08:18:39;3.03;;;1.88;;
60243;SDS011;46106;51.468;5.814;2023-07-20T08:21:25;3.08;;;2.20;;
60243;SDS011;46106;51.468;5.814;2023-07-20T08:24:11;3.65;;;2.30;;
60243;SDS011;46106;51.468;5.814;2023-07-20T08:26:57;2.30;;;2.10;;
60243;SDS011;46106;51.468;5.814;2023-07-20T08:29:42;3.00;;;1.92;;
60243;SDS011;46106;51.468;5.814;2023-07-20T08:32:28;4.35;;;1.75;;
60243;SDS011;46106;51.468;5.814;2023-07-20T08:35:14;3.55;;;2.03;;
60243;SDS011;46106;51.468;5.814;2023-07-20T08:38:01;3.50;;;2.22;;
60243;SDS011;46106;51.468;5.814;2023-07-20T08:40:47;3.22;;;2.78;;
60243;SDS011;46106;51.468;5.814;2023-07-20T08:43:33;5.95;;;2.42;;
60243;SDS011;46106;51.468;5.814;2023-07-20T08:46:19;2.97;;;2.35;;
60243;SDS011;46106;51.468;5.814;2023-07-20T08:49:06;3.72;;;1.73;;
60243;SDS011;46106;51.468;5.814;2023-07-20T08:51:52;1.98;;;1.60;;
60243;SDS011;46106;51.468;5.814;2023-07-20T08:54:38;1.45;;;1.20;;
60243;SDS011;46106;51.468;5.814;2023-07-20T08:57:25;2.45;;;1.10;;
60243;SDS011;46106;51.468;5.814;2023-07-20T09:00:11;1.98;;;1.40;;
60243;SDS011;46106;51.468;5.814;2023-07-20T09:02:59;4.43;;;1.63;;
60243;SDS011;46106;51.468;5.814;2023-07-20T09:05:48;1.58;;;1.20;;
60243;SDS011;46106;51.468;5.814;2023-07-20T09:08:37;1.45;;;1.20;;
60243;SDS011;46106;51.468;5.814;2023-07-20T09:11:23;2.30;;;1.20;;
60243;SDS011;46106;51.468;5.814;2023-07-20T09:14:09;2.90;;;1.13;;
60243;SDS011;46106;51.468;5.814;2023-07-20T09:16:56;2.42;;;1.38;;
60243;SDS011;46106;51.468;5.814;2023-07-20T09:19:47;1.95;;;1.50;;
60243;SDS011;46106;51.468;5.814;2023-07-20T09:22:34;2.17;;;1.10;;
60243;SDS011;46106;51.468;5.814;2023-07-20T09:25:20;3.20;;;1.20;;
60243;SDS011;46106;51.468;5.814;2023-07-20T09:28:06;1.92;;;1.10;;
60243;SDS011;46106;51.468;5.814;2023-07-20T09:30:52;2.72;;;1.00;;
60243;SDS011;46106;51.468;5.814;2023-07-20T09:33:39;1.85;;;1.10;;
60243;SDS011;46106;51.468;5.814;2023-07-20T09:36:28;3.83;;;1.10;;
60243;SDS011;46106;51.468;5.814;2023-07-20T09:39:14;2.28;;;1.15;;
60243;SDS011;46106;51.468;5.814;2023-07-20T09:42:00;2.22;;;1.35;;
60243;SDS011;46106;51.468;5.814;2023-07-20T09:44:50;2.50;;;1.30;;
60243;SDS011;46106;51.468;5.814;2023-07-20T09:47:37;3.78;;;1.70;;
60243;SDS011;46106;51.468;5.814;2023-07-20T09:50:23;3.17;;;1.30;;
60243;SDS011;46106;51.468;5.814;2023-07-20T09:53:11;1.48;;;1.38;;
60243;SDS011;46106;51.468;5.814;2023-07-20T09:56:00;1.20;;;1.10;;
60243;SDS011;46106;51.468;5.814;2023-07-20T09:58:47;1.17;;;1.00;;
60243;SDS011;46106;51.468;5.814;2023-07-20T10:01:34;2.15;;;0.93;;
60243;SDS011;46106;51.468;5.814;2023-07-20T10:04:20;2.78;;;1.10;;
60243;SDS011;46106;51.468;5.814;2023-07-20T10:07:08;1.15;;;0.98;;
60243;SDS011;46106;51.468;5.814;2023-07-20T10:09:56;1.67;;;1.00;;
60243;SDS011;46106;51.468;5.814;2023-07-20T10:12:47;4.10;;;1.08;;
60243;SDS011;46106;51.468;5.814;2023-07-20T10:15:36;1.88;;;0.80;;
60243;SDS011;46106;51.468;5.814;2023-07-20T10:18:26;1.30;;;0.90;;
60243;SDS011;46106;51.468;5.814;2023-07-20T10:21:14;2.03;;;0.68;;
60243;SDS011;46106;51.468;5.814;2023-07-20T10:24:02;1.90;;;0.90;;
60243;SDS011;46106;51.468;5.814;2023-07-20T10:26:50;1.98;;;0.75;;
60243;SDS011;46106;51.468;5.814;2023-07-20T10:29:36;1.48;;;0.85;;
60243;SDS011;46106;51.468;5.814;2023-07-20T10:32:23;1.50;;;1.00;;
60243;SDS011;46106;51.468;5.814;2023-07-20T10:35:12;1.10;;;0.93;;
60243;SDS011;46106;51.468;5.814;2023-07-20T10:38:00;1.13;;;0.90;;
60243;SDS011;46106;51.468;5.814;2023-07-20T10:40:55;2.75;;;1.10;;
60243;SDS011;46106;51.468;5.814;2023-07-20T10:43:42;2.72;;;0.90;;
60243;SDS011;46106;51.468;5.814;2023-07-20T10:49:23;2.88;;;1.20;;
60243;SDS011;46106;51.468;5.814;2023-07-20T10:52:12;1.92;;;1.20;;
60243;SDS011;46106;51.468;5.814;2023-07-20T10:54:59;1.80;;;1.00;;
60243;SDS011;46106;51.468;5.814;2023-07-20T10:58:29;2.80;;;0.90;;
60243;SDS011;46106;51.468;5.814;2023-07-20T11:01:13;1.75;;;1.10;;
60243;SDS011;46106;51.468;5.814;2023-07-20T11:04:02;2.10;;;1.02;;
60243;SDS011;46106;51.468;5.814;2023-07-20T11:06:57;2.42;;;1.10;;
60243;SDS011;46106;51.468;5.814;2023-07-20T11:09:42;1.75;;;1.02;;
60243;SDS011;46106;51.468;5.814;2023-07-20T11:12:28;2.17;;;1.00;;
60243;SDS011;46106;51.468;5.814;2023-07-20T11:15:14;2.30;;;0.90;;
60243;SDS011;46106;51.468;5.814;2023-07-20T11:18:13;1.35;;;1.05;;
60243;SDS011;46106;51.468;5.814;2023-07-20T11:20:59;1.10;;;1.00;;
60243;SDS011;46106;51.468;5.814;2023-07-20T11:23:45;1.08;;;0.80;;
60243;SDS011;46106;51.468;5.814;2023-07-20T11:26:40;2.22;;;1.00;;
60243;SDS011;46106;51.468;5.814;2023-07-20T11:29:29;2.50;;;0.70;;
60243;SDS011;46106;51.468;5.814;2023-07-20T11:32:21;2.45;;;0.80;;
60243;SDS011;46106;51.468;5.814;2023-07-20T11:35:12;3.38;;;0.63;;
60243;SDS011;46106;51.468;5.814;2023-07-20T11:37:58;0.93;;;0.80;;
60243;SDS011;46106;51.468;5.814;2023-07-20T11:40:44;1.17;;;0.80;;
60243;SDS011;46106;51.468;5.814;2023-07-20T11:43:31;1.23;;;0.77;;
60243;SDS011;46106;51.468;5.814;2023-07-20T11:46:16;3.08;;;0.90;;
60243;SDS011;46106;51.468;5.814;2023-07-20T11:49:02;1.30;;;0.80;;
60243;SDS011;46106;51.468;5.814;2023-07-20T11:51:48;2.15;;;0.80;;
60243;SDS011;46106;51.468;5.814;2023-07-20T11:54:35;3.22;;;0.70;;
60243;SDS011;46106;51.468;5.814;2023-07-20T11:57:21;1.92;;;0.80;;
60243;SDS011;46106;51.468;5.814;2023-07-20T12:00:07;3.45;;;0.90;;
60243;SDS011;46106;51.468;5.814;2023-07-20T12:02:56;14.30;;;1.05;;
60243;SDS011;46106;51.468;5.814;2023-07-20T12:05:42;1.23;;;0.73;;
60243;SDS011;46106;51.468;5.814;2023-07-20T12:08:29;3.38;;;0.90;;
60243;SDS011;46106;51.468;5.814;2023-07-20T12:11:29;8.52;;;1.00;;
60243;SDS011;46106;51.468;5.814;2023-07-20T12:14:24;4.78;;;1.00;;
60243;SDS011;46106;51.468;5.814;2023-07-20T12:17:10;3.53;;;1.17;;
60243;SDS011;46106;51.468;5.814;2023-07-20T12:19:57;6.07;;;0.90;;
60243;SDS011;46106;51.468;5.814;2023-07-20T12:22:44;1.67;;;0.80;;
60243;SDS011;46106;51.468;5.814;2023-07-20T12:25:39;1.02;;;0.63;;
60243;SDS011;46106;51.468;5.814;2023-07-20T12:28:26;1.13;;;0.80;;
60243;SDS011;46106;51.468;5.814;2023-07-20T12:31:12;1.70;;;1.00;;
60243;SDS011;46106;51.468;5.814;2023-07-20T12:33:58;5.07;;;0.90;;
60243;SDS011;46106;51.468;5.814;2023-07-20T12:36:44;1.80;;;0.80;;
60243;SDS011;46106;51.468;5.814;2023-07-20T12:39:29;3.08;;;0.90;;
60243;SDS011;46106;51.468;5.814;2023-07-20T12:42:16;3.15;;;0.82;;
60243;SDS011;46106;51.468;5.814;2023-07-20T12:45:02;3.35;;;1.00;;
60243;SDS011;46106;51.468;5.814;2023-07-20T12:47:48;1.35;;;0.90;;
60243;SDS011;46106;51.468;5.814;2023-07-20T12:50:34;3.00;;;0.90;;
60243;SDS011;46106;51.468;5.814;2023-07-20T12:53:19;4.03;;;0.90;;
60243;SDS011;46106;51.468;5.814;2023-07-20T12:56:05;1.40;;;0.98;;
60243;SDS011;46106;51.468;5.814;2023-07-20T12:58:51;5.38;;;0.82;;
60243;SDS011;46106;51.468;5.814;2023-07-20T13:01:37;1.92;;;0.88;;
60243;SDS011;46106;51.468;5.814;2023-07-20T13:04:23;1.73;;;0.90;;
60243;SDS011;46106;51.468;5.814;2023-07-20T13:07:09;1.73;;;0.88;;
60243;SDS011;46106;51.468;5.814;2023-07-20T13:09:56;2.20;;;1.02;;
60243;SDS011;46106;51.468;5.814;2023-07-20T13:12:42;1.42;;;0.90;;
60243;SDS011;46106;51.468;5.814;2023-07-20T13:15:31;1.63;;;0.90;;
60243;SDS011;46106;51.468;5.814;2023-07-20T13:18:18;3.50;;;0.80;;
60243;SDS011;46106;51.468;5.814;2023-07-20T13:21:03;2.30;;;0.85;;
60243;SDS011;46106;51.468;5.814;2023-07-20T13:23:49;2.63;;;0.80;;
60243;SDS011;46106;51.468;5.814;2023-07-20T13:26:35;1.02;;;0.73;;
60243;SDS011;46106;51.468;5.814;2023-07-20T13:29:21;0.80;;;0.73;;
60243;SDS011;46106;51.468;5.814;2023-07-20T13:32:07;1.17;;;0.70;;
60243;SDS011;46106;51.468;5.814;2023-07-20T13:34:53;3.10;;;0.90;;
60243;SDS011;46106;51.468;5.814;2023-07-20T13:37:39;2.03;;;0.82;;
60243;SDS011;46106;51.468;5.814;2023-07-20T13:40:24;4.22;;;0.90;;
60243;SDS011;46106;51.468;5.814;2023-07-20T13:43:10;3.40;;;0.60;;
60243;SDS011;46106;51.468;5.814;2023-07-20T13:45:56;0.85;;;0.70;;
60243;SDS011;46106;51.468;5.814;2023-07-20T13:48:42;3.05;;;1.10;;
60243;SDS011;46106;51.468;5.814;2023-07-20T13:51:27;2.90;;;0.85;;
60243;SDS011;46106;51.468;5.814;2023-07-20T13:54:13;1.88;;;0.70;;
60243;SDS011;46106;51.468;5.814;2023-07-20T13:56:59;1.60;;;1.10;;
60243;SDS011;46106;51.468;5.814;2023-07-20T13:59:44;2.00;;;1.20;;
60243;SDS011;46106;51.468;5.814;2023-07-20T14:02:31;1.75;;;1.00;;
60243;SDS011;46106;51.468;5.814;2023-07-20T14:05:17;1.48;;;0.90;;
60243;SDS011;46106;51.468;5.814;2023-07-20T14:08:04;5.15;;;0.98;;
60243;SDS011;46106;51.468;5.814;2023-07-20T14:10:50;1.45;;;1.15;;
60243;SDS011;46106;51.468;5.814;2023-07-20T14:13:36;1.20;;;0.77;;
60243;SDS011;46106;51.468;5.814;2023-07-20T14:16:22;2.08;;;1.10;;
60243;SDS011;46106;51.468;5.814;2023-07-20T14:19:07;4.45;;;1.10;;
60243;SDS011;46106;51.468;5.814;2023-07-20T14:21:53;1.27;;;1.00;;
60243;SDS011;46106;51.468;5.814;2023-07-20T14:24:43;2.00;;;0.93;;
60243;SDS011;46106;51.468;5.814;2023-07-20T14:27:29;0.98;;;0.80;;
60243;SDS011;46106;51.468;5.814;2023-07-20T14:30:14;3.55;;;0.90;;
60243;SDS011;46106;51.468;5.814;2023-07-20T14:33:00;7.38;;;0.70;;
60243;SDS011;46106;51.468;5.814;2023-07-20T14:35:46;1.40;;;1.00;;
60243;SDS011;46106;51.468;5.814;2023-07-20T14:38:33;4.35;;;1.10;;
60243;SDS011;46106;51.468;5.814;2023-07-20T14:41:19;10.02;;;1.20;;
60243;SDS011;46106;51.468;5.814;2023-07-20T14:44:06;2.90;;;1.08;;
60243;SDS011;46106;51.468;5.814;2023-07-20T14:46:51;0.98;;;0.85;;
60243;SDS011;46106;51.468;5.814;2023-07-20T14:49:38;3.38;;;0.80;;
60243;SDS011;46106;51.468;5.814;2023-07-20T14:52:23;2.28;;;1.02;;
60243;SDS011;46106;51.468;5.814;2023-07-20T14:55:09;4.43;;;0.85;;
60243;SDS011;46106;51.468;5.814;2023-07-20T14:57:55;2.80;;;0.80;;
60243;SDS011;46106;51.468;5.814;2023-07-20T15:00:40;1.30;;;0.70;;
60243;SDS011;46106;51.468;5.814;2023-07-20T15:03:26;3.13;;;1.00;;
60243;SDS011;46106;51.468;5.814;2023-07-20T15:06:12;2.22;;;1.02;;
60243;SDS011;46106;51.468;5.814;2023-07-20T15:08:58;4.03;;;0.85;;
60243;SDS011;46106;51.468;5.814;2023-07-20T15:11:43;6.07;;;1.02;;
60243;SDS011;46106;51.468;5.814;2023-07-20T15:14:29;1.95;;;0.90;;
60243;SDS011;46106;51.468;5.814;2023-07-20T15:17:15;1.88;;;0.88;;
60243;SDS011;46106;51.468;5.814;2023-07-20T15:20:01;1.17;;;0.98;;
60243;SDS011;46106;51.468;5.814;2023-07-20T15:22:49;5.53;;;0.70;;
60243;SDS011;46106;51.468;5.814;2023-07-20T15:25:36;3.97;;;0.90;;
60243;SDS011;46106;51.468;5.814;2023-07-20T15:28:22;2.45;;;0.75;;
60243;SDS011;46106;51.468;5.814;2023-07-20T15:31:07;1.20;;;0.80;;
60243;SDS011;46106;51.468;5.814;2023-07-20T15:33:53;3.90;;;0.80;;
60243;SDS011;46106;51.468;5.814;2023-07-20T15:36:39;3.22;;;1.08;;
60243;SDS011;46106;51.468;5.814;2023-07-20T15:39:26;1.83;;;1.10;;
60243;SDS011;46106;51.468;5.814;2023-07-20T15:42:12;3.90;;;0.70;;
60243;SDS011;46106;51.468;5.814;2023-07-20T15:44:58;6.55;;;0.98;;
60243;SDS011;46106;51.468;5.814;2023-07-20T15:47:44;4.70;;;0.70;;
60243;SDS011;46106;51.468;5.814;2023-07-20T15:50:31;1.55;;;0.80;;
60243;SDS011;46106;51.468;5.814;2023-07-20T15:53:16;2.17;;;0.80;;
60243;SDS011;46106;51.468;5.814;2023-07-20T15:56:02;2.67;;;0.93;;
60243;SDS011;46106;51.468;5.814;2023-07-20T15:58:48;0.80;;;0.77;;
60243;SDS011;46106;51.468;5.814;2023-07-20T16:01:34;1.77;;;0.75;;
60243;SDS011;46106;51.468;5.814;2023-07-20T16:04:20;1.75;;;1.00;;
60243;SDS011;46106;51.468;5.814;2023-07-20T16:07:06;4.90;;;1.00;;
60243;SDS011;46106;51.468;5.814;2023-07-20T16:09:52;1.90;;;0.90;;
60243;SDS011;46106;51.468;5.814;2023-07-20T16:12:38;9.20;;;1.70;;
60243;SDS011;46106;51.468;5.814;2023-07-20T16:15:24;2.70;;;0.90;;
60243;SDS011;46106;51.468;5.814;2023-07-20T16:18:11;1.67;;;1.00;;
60243;SDS011;46106;51.468;5.814;2023-07-20T16:20:57;1.75;;;1.20;;
60243;SDS011;46106;51.468;5.814;2023-07-20T16:23:44;1.52;;;1.02;;
60243;SDS011;46106;51.468;5.814;2023-07-20T16:26:29;1.02;;;0.93;;
60243;SDS011;46106;51.468;5.814;2023-07-20T16:29:15;2.47;;;0.90;;
60243;SDS011;46106;51.468;5.814;2023-07-20T16:32:01;1.25;;;0.80;;
60243;SDS011;46106;51.468;5.814;2023-07-20T16:34:47;3.85;;;1.17;;
60243;SDS011;46106;51.468;5.814;2023-07-20T16:37:33;2.15;;;1.00;;
60243;SDS011;46106;51.468;5.814;2023-07-20T16:40:18;5.43;;;0.90;;
60243;SDS011;46106;51.468;5.814;2023-07-20T16:43:04;8.20;;;0.90;;
60243;SDS011;46106;51.468;5.814;2023-07-20T16:45:50;1.13;;;0.80;;
60243;SDS011;46106;51.468;5.814;2023-07-20T16:48:36;5.00;;;1.05;;
60243;SDS011;46106;51.468;5.814;2023-07-20T16:51:22;2.67;;;0.98;;
60243;SDS011;46106;51.468;5.814;2023-07-20T16:54:08;3.90;;;1.02;;